createdAt,value
2017-12-16T00:00:06.237Z,3.10
2017-12-16T00:02:34.535Z,3.20
2017-12-16T00:05:02.859Z,3.20
2017-12-16T00:07:31.153Z,3.20
2017-12-16T00:09:59.467Z,3.20
2017-12-16T00:12:27.761Z,3.20
2017-12-16T00:14:56.122Z,3.20
2017-12-16T00:17:24.409Z,3.20
2017-12-16T00:19:52.705Z,3.20
2017-12-16T00:22:21.008Z,3.20
2017-12-16T00:24:49.305Z,3.20
2017-12-16T00:27:17.618Z,3.20
2017-12-16T00:29:45.912Z,3.20
2017-12-16T00:32:14.264Z,3.20
2017-12-16T00:34:42.565Z,3.20
2017-12-16T00:37:10.862Z,3.20
2017-12-16T00:39:39.172Z,3.20
2017-12-16T00:42:07.470Z,3.20
2017-12-16T00:44:35.016Z,3.20
2017-12-16T00:47:03.316Z,3.20
2017-12-16T00:49:31.656Z,3.10
2017-12-16T00:51:59.989Z,3.10
2017-12-16T00:54:28.256Z,3.10
2017-12-16T00:56:56.581Z,3.10
2017-12-16T00:59:24.112Z,3.10
2017-12-16T01:01:52.424Z,3.10
2017-12-16T01:04:20.725Z,3.10
2017-12-16T01:06:49.055Z,3.10
2017-12-16T01:09:17.344Z,3.20
2017-12-16T01:11:45.640Z,3.20
2017-12-16T01:14:13.956Z,3.20
2017-12-16T01:16:42.244Z,3.20
2017-12-16T01:19:10.564Z,3.20
2017-12-16T01:21:38.099Z,3.20
2017-12-16T01:24:06.422Z,3.20
2017-12-16T01:26:34.713Z,3.20
2017-12-16T01:29:03.105Z,3.20
2017-12-16T01:31:31.376Z,3.20
2017-12-16T01:34:11.499Z,3.20
2017-12-16T01:36:51.516Z,3.20
2017-12-16T01:39:19.873Z,3.20
2017-12-16T01:41:48.162Z,3.20
2017-12-16T01:44:16.476Z,3.10
2017-12-16T01:46:44.785Z,3.20
2017-12-16T01:49:13.075Z,3.20
2017-12-16T01:51:41.388Z,3.20
2017-12-16T01:54:09.682Z,3.20
2017-12-16T01:56:37.996Z,3.20
2017-12-16T01:59:06.288Z,3.20
2017-12-16T02:01:33.864Z,3.10
2017-12-16T02:04:02.160Z,3.20
2017-12-16T02:06:30.456Z,3.20
2017-12-16T02:08:58.773Z,3.20
2017-12-16T02:11:27.064Z,3.20
2017-12-16T02:13:55.375Z,3.10
2017-12-16T02:16:23.670Z,3.10
2017-12-16T02:18:52.026Z,3.10
2017-12-16T02:21:20.326Z,3.10
2017-12-16T02:23:48.680Z,3.10
2017-12-16T02:26:16.977Z,3.10
2017-12-16T02:28:45.268Z,3.10
2017-12-16T02:31:13.586Z,3.00
2017-12-16T02:33:41.949Z,3.10
2017-12-16T02:36:10.211Z,3.00
2017-12-16T02:38:38.505Z,3.00
2017-12-16T02:41:06.817Z,3.00
2017-12-16T02:43:35.121Z,3.00
2017-12-16T02:46:03.464Z,3.00
2017-12-16T02:48:31.765Z,3.00
2017-12-16T02:51:00.062Z,3.00
2017-12-16T02:53:28.385Z,3.00
2017-12-16T02:55:56.672Z,3.00
2017-12-16T02:58:24.995Z,3.00
2017-12-16T03:00:53.284Z,3.00
2017-12-16T03:03:21.601Z,3.00
2017-12-16T03:05:49.884Z,3.00
2017-12-16T03:08:18.239Z,3.00
2017-12-16T03:10:46.587Z,3.00
2017-12-16T03:13:14.861Z,3.00
2017-12-16T03:15:43.193Z,3.00
2017-12-16T03:18:11.484Z,3.00
2017-12-16T03:20:39.800Z,3.00
2017-12-16T03:23:08.105Z,3.00
2017-12-16T03:25:36.422Z,3.00
2017-12-16T03:28:04.716Z,3.00
2017-12-16T03:30:33.069Z,3.00
2017-12-16T03:33:01.379Z,3.00
2017-12-16T03:35:29.680Z,3.00
2017-12-16T03:37:57.992Z,3.00
2017-12-16T03:40:26.310Z,3.10
2017-12-16T03:42:54.626Z,3.00
2017-12-16T03:45:22.921Z,3.00
2017-12-16T03:47:51.237Z,3.00
2017-12-16T03:50:19.524Z,3.10
2017-12-16T03:52:47.828Z,3.00
2017-12-16T03:55:16.117Z,3.00
2017-12-16T03:57:44.408Z,3.00
2017-12-16T04:00:12.716Z,3.00
2017-12-16T04:02:41.009Z,3.00
2017-12-16T04:05:09.328Z,3.00
2017-12-16T04:07:37.616Z,3.00
2017-12-16T04:10:05.928Z,3.00
2017-12-16T04:12:34.221Z,3.10
2017-12-16T04:15:02.517Z,3.10
2017-12-16T04:17:30.833Z,3.10
2017-12-16T04:19:59.125Z,3.00
2017-12-16T04:22:27.441Z,3.00
2017-12-16T04:24:55.744Z,3.00
2017-12-16T04:27:24.097Z,3.00
2017-12-16T04:29:52.390Z,3.00
2017-12-16T04:32:19.919Z,3.00
2017-12-16T04:34:48.232Z,3.00
2017-12-16T04:37:16.523Z,2.90
2017-12-16T04:39:44.836Z,2.90
2017-12-16T04:42:13.129Z,2.90
2017-12-16T04:44:41.476Z,2.90
2017-12-16T04:47:09.768Z,2.90
2017-12-16T04:49:38.102Z,2.90
2017-12-16T04:52:06.397Z,3.00
2017-12-16T04:54:34.686Z,3.00
2017-12-16T04:57:02.997Z,3.00
2017-12-16T04:59:31.289Z,3.00
2017-12-16T05:01:59.607Z,3.00
2017-12-16T05:04:27.901Z,3.00
2017-12-16T05:06:56.213Z,2.90
2017-12-16T05:09:24.506Z,2.90
2017-12-16T05:11:52.879Z,2.90
2017-12-16T05:14:21.165Z,3.00
2017-12-16T05:16:49.457Z,3.00
2017-12-16T05:19:17.769Z,3.00
2017-12-16T05:21:46.061Z,3.10
2017-12-16T05:24:14.382Z,3.00
2017-12-16T05:26:42.701Z,3.10
2017-12-16T05:29:11.020Z,3.10
2017-12-16T05:31:39.320Z,3.10
2017-12-16T05:34:07.649Z,3.10
2017-12-16T05:36:35.936Z,3.10
2017-12-16T05:39:04.229Z,3.10
2017-12-16T05:41:32.540Z,3.10
2017-12-16T05:44:00.835Z,3.10
2017-12-16T05:46:29.151Z,3.10
2017-12-16T05:48:57.444Z,3.20
2017-12-16T05:51:25.765Z,3.20
2017-12-16T05:53:54.056Z,3.20
2017-12-16T05:56:22.373Z,3.20
2017-12-16T05:58:50.660Z,3.20
2017-12-16T06:01:18.985Z,3.20
2017-12-16T06:03:47.305Z,3.20
2017-12-16T06:06:15.672Z,3.20
2017-12-16T06:08:43.968Z,3.20
2017-12-16T06:11:12.260Z,3.20
2017-12-16T06:13:40.564Z,3.20
2017-12-16T06:16:08.866Z,3.20
2017-12-16T06:18:37.180Z,3.20
2017-12-16T06:21:05.481Z,3.10
2017-12-16T06:23:33.798Z,3.10
2017-12-16T06:26:02.088Z,3.10
2017-12-16T06:28:30.412Z,3.10
2017-12-16T06:30:58.700Z,3.20
2017-12-16T06:33:27.049Z,3.10
2017-12-16T06:35:55.335Z,3.20
2017-12-16T06:38:23.625Z,3.20
2017-12-16T06:40:51.941Z,3.20
2017-12-16T06:43:20.242Z,3.20
2017-12-16T06:45:48.557Z,3.10
2017-12-16T06:48:16.849Z,3.10
2017-12-16T06:50:45.162Z,3.10
2017-12-16T06:53:13.458Z,3.10
2017-12-16T06:55:41.829Z,3.10
2017-12-16T06:58:10.116Z,3.10
2017-12-16T07:00:38.401Z,3.10
2017-12-16T07:03:06.717Z,3.10
2017-12-16T07:05:35.031Z,3.10
2017-12-16T07:08:03.345Z,3.10
2017-12-16T07:10:30.872Z,3.10
2017-12-16T07:12:59.188Z,3.10
2017-12-16T07:15:27.476Z,3.20
2017-12-16T07:17:55.813Z,3.20
2017-12-16T07:20:24.121Z,3.20
2017-12-16T07:22:52.489Z,3.20
2017-12-16T07:25:20.758Z,3.20
2017-12-16T07:27:49.068Z,3.20
2017-12-16T07:30:17.365Z,3.20
2017-12-16T07:32:45.684Z,3.20
2017-12-16T07:35:13.982Z,3.20
2017-12-16T07:37:42.313Z,3.20
2017-12-16T07:40:10.607Z,3.20
2017-12-16T07:42:38.906Z,3.30
2017-12-16T07:45:07.221Z,3.30
2017-12-16T07:47:35.514Z,3.30
2017-12-16T07:50:03.840Z,3.40
2017-12-16T07:52:32.143Z,3.40
2017-12-16T07:55:00.501Z,3.40
2017-12-16T07:57:28.796Z,3.40
2017-12-16T07:59:57.111Z,3.50
2017-12-16T08:02:25.412Z,3.50
2017-12-16T08:04:53.748Z,3.50
2017-12-16T08:07:22.041Z,3.50
2017-12-16T08:09:51.301Z,3.50
2017-12-16T08:12:19.611Z,3.50
2017-12-16T08:14:47.933Z,3.60
2017-12-16T08:17:16.231Z,3.60
2017-12-16T08:19:44.539Z,3.60
2017-12-16T08:22:12.824Z,3.70
2017-12-16T08:24:41.137Z,3.70
2017-12-16T08:27:09.430Z,3.80
2017-12-16T08:29:37.744Z,3.90
2017-12-16T08:32:06.045Z,3.90
2017-12-16T08:34:34.361Z,3.90
2017-12-16T08:37:02.656Z,4.00
2017-12-16T08:39:30.205Z,3.90
2017-12-16T08:41:57.736Z,3.90
2017-12-16T08:44:26.054Z,3.90
2017-12-16T08:46:54.358Z,4.00
2017-12-16T08:49:22.669Z,4.00
2017-12-16T08:51:50.959Z,4.00
2017-12-16T08:54:19.272Z,4.00
2017-12-16T08:56:47.591Z,4.00
2017-12-16T08:59:15.901Z,4.00
2017-12-16T09:01:44.188Z,4.00
2017-12-16T09:04:12.516Z,4.00
2017-12-16T09:06:40.799Z,4.10
2017-12-16T09:09:09.123Z,4.30
2017-12-16T09:11:37.417Z,4.40
2017-12-16T09:14:05.735Z,4.30
2017-12-16T09:16:34.028Z,4.30
2017-12-16T09:19:02.375Z,4.30
2017-12-16T09:21:30.668Z,4.30
2017-12-16T09:23:58.196Z,4.30
2017-12-16T09:26:26.521Z,4.30
2017-12-16T09:28:54.813Z,4.30
2017-12-16T09:31:23.137Z,4.30
2017-12-16T09:33:51.428Z,4.30
2017-12-16T09:36:19.748Z,4.20
2017-12-16T09:38:48.047Z,4.20
2017-12-16T09:41:16.365Z,4.20
2017-12-16T09:43:44.672Z,4.30
2017-12-16T09:46:12.984Z,4.40
2017-12-16T09:48:41.276Z,4.60
2017-12-16T09:51:09.600Z,4.60
2017-12-16T09:53:37.900Z,4.70
2017-12-16T09:56:06.212Z,4.70
2017-12-16T09:58:34.504Z,4.70
2017-12-16T10:01:02.820Z,4.70
2017-12-16T10:03:31.108Z,4.70
2017-12-16T10:05:59.415Z,4.60
2017-12-16T10:08:27.704Z,4.60
2017-12-16T10:10:56.020Z,4.60
2017-12-16T10:13:24.312Z,4.60
2017-12-16T10:15:52.631Z,4.50
2017-12-16T10:18:20.924Z,4.50
2017-12-16T10:20:49.252Z,4.60
2017-12-16T10:23:17.540Z,4.70
2017-12-16T10:25:45.852Z,4.90
2017-12-16T10:28:14.137Z,5.10
2017-12-16T10:30:42.443Z,5.10
2017-12-16T10:33:10.731Z,5.10
2017-12-16T10:35:39.045Z,5.00
2017-12-16T10:38:07.333Z,5.00
2017-12-16T10:40:35.651Z,5.00
2017-12-16T10:43:03.948Z,5.20
2017-12-16T10:45:32.266Z,5.20
2017-12-16T10:48:00.568Z,5.20
2017-12-16T10:50:28.876Z,5.20
2017-12-16T10:52:57.168Z,5.20
2017-12-16T10:55:25.485Z,5.30
2017-12-16T10:57:53.781Z,5.30
2017-12-16T11:00:22.075Z,5.20
2017-12-16T11:02:50.395Z,5.20
2017-12-16T11:05:18.693Z,5.20
2017-12-16T11:07:47.009Z,5.10
2017-12-16T11:10:15.300Z,5.10
2017-12-16T11:12:43.610Z,5.00
2017-12-16T11:15:11.901Z,5.00
2017-12-16T11:17:40.209Z,5.00
2017-12-16T11:20:08.503Z,5.10
2017-12-16T11:22:36.820Z,5.30
2017-12-16T11:25:05.116Z,5.50
2017-12-16T11:27:33.434Z,5.60
2017-12-16T11:30:01.721Z,5.50
2017-12-16T11:32:30.028Z,5.40
2017-12-16T11:34:58.316Z,5.50
2017-12-16T11:37:28.128Z,5.50
2017-12-16T11:39:56.425Z,5.50
2017-12-16T11:42:24.739Z,5.50
2017-12-16T11:44:53.035Z,5.50
2017-12-16T11:47:21.353Z,5.30
2017-12-16T11:49:49.644Z,5.30
2017-12-16T11:52:17.948Z,5.20
2017-12-16T11:54:51.023Z,5.20
2017-12-16T11:57:19.337Z,5.30
2017-12-16T11:59:47.625Z,5.20
2017-12-16T12:02:15.936Z,5.20
2017-12-16T12:04:44.224Z,5.20
2017-12-16T12:07:12.593Z,5.20
2017-12-16T12:09:40.869Z,5.30
2017-12-16T12:12:09.172Z,5.30
2017-12-16T12:14:37.456Z,5.30
2017-12-16T12:17:05.772Z,5.40
2017-12-16T12:19:34.061Z,5.30
2017-12-16T12:22:02.372Z,5.20
2017-12-16T12:24:30.664Z,5.10
2017-12-16T12:26:58.980Z,5.00
2017-12-16T12:29:27.277Z,5.00
2017-12-16T12:31:55.580Z,5.10
2017-12-16T12:34:23.112Z,5.00
2017-12-16T12:36:51.424Z,5.10
2017-12-16T12:39:19.717Z,5.10
2017-12-16T12:41:48.045Z,5.10
2017-12-16T12:44:16.327Z,5.10
2017-12-16T12:46:44.616Z,5.10
2017-12-16T12:49:14.097Z,5.10
2017-12-16T12:51:42.385Z,5.20
2017-12-16T12:54:10.706Z,5.30
2017-12-16T12:56:39.001Z,5.30
2017-12-16T12:59:07.315Z,5.20
2017-12-16T13:01:35.605Z,5.20
2017-12-16T13:04:03.920Z,5.10
2017-12-16T13:06:32.216Z,5.00
2017-12-16T13:09:00.523Z,4.90
2017-12-16T13:11:28.822Z,4.80
2017-12-16T13:13:57.132Z,4.80
2017-12-16T13:16:25.421Z,4.70
2017-12-16T13:18:53.736Z,4.80
2017-12-16T13:21:22.027Z,4.80
2017-12-16T13:23:50.366Z,4.80
2017-12-16T13:26:18.654Z,4.80
2017-12-16T13:28:46.969Z,4.80
2017-12-16T13:31:15.265Z,4.80
2017-12-16T13:33:43.584Z,4.80
2017-12-16T13:36:11.876Z,4.70
2017-12-16T13:38:40.184Z,4.60
2017-12-16T13:41:08.473Z,4.60
2017-12-16T13:43:36.776Z,4.60
2017-12-16T13:46:05.072Z,4.60
2017-12-16T13:48:33.383Z,4.70
2017-12-16T13:51:00.901Z,4.70
2017-12-16T13:53:29.208Z,5.00
2017-12-16T13:55:57.492Z,5.00
2017-12-16T13:58:25.804Z,5.00
2017-12-16T14:00:54.103Z,4.90
2017-12-16T14:03:22.408Z,4.80
2017-12-16T14:05:50.700Z,4.80
2017-12-16T14:08:19.007Z,4.70
2017-12-16T14:10:47.291Z,4.70
2017-12-16T14:13:15.605Z,4.60
2017-12-16T14:15:43.968Z,4.60
2017-12-16T14:18:12.293Z,4.50
2017-12-16T14:20:40.575Z,4.50
2017-12-16T14:23:08.861Z,4.50
2017-12-16T14:25:37.172Z,4.50
2017-12-16T14:28:05.477Z,4.50
2017-12-16T14:30:33.785Z,4.50
2017-12-16T14:33:02.076Z,4.50
2017-12-16T14:35:30.381Z,4.40
2017-12-16T14:37:58.668Z,4.40
2017-12-16T14:40:26.972Z,4.30
2017-12-16T14:42:55.258Z,4.30
2017-12-16T14:45:23.728Z,4.20
2017-12-16T14:47:52.017Z,4.20
2017-12-16T14:50:20.325Z,4.20
2017-12-16T14:52:48.627Z,4.10
2017-12-16T14:55:16.942Z,4.00
2017-12-16T14:57:45.233Z,4.00
2017-12-16T15:00:13.544Z,3.90
2017-12-16T15:02:41.841Z,3.80
2017-12-16T15:05:10.156Z,3.80
2017-12-16T15:07:38.448Z,3.80
2017-12-16T15:10:06.757Z,3.80
2017-12-16T15:12:35.060Z,3.90
2017-12-16T15:15:03.372Z,3.90
2017-12-16T15:17:31.665Z,3.90
2017-12-16T15:19:59.980Z,3.90
2017-12-16T15:22:28.273Z,3.80
2017-12-16T15:24:56.584Z,3.80
2017-12-16T15:27:24.872Z,3.80
2017-12-16T15:29:53.192Z,3.70
2017-12-16T15:32:21.499Z,3.70
2017-12-16T15:34:49.821Z,3.60
2017-12-16T15:37:18.112Z,3.50
2017-12-16T15:39:46.420Z,3.40
2017-12-16T15:42:14.700Z,3.40
2017-12-16T15:44:43.014Z,3.30
2017-12-16T15:47:11.303Z,3.30
2017-12-16T15:49:39.613Z,3.20
2017-12-16T15:52:07.914Z,3.10
2017-12-16T15:54:36.238Z,3.10
2017-12-16T15:57:04.520Z,3.10
2017-12-16T15:59:32.882Z,3.10
2017-12-16T16:02:01.168Z,3.10
2017-12-16T16:04:29.460Z,3.20
2017-12-16T16:06:57.769Z,3.20
2017-12-16T16:09:26.060Z,3.20
2017-12-16T16:11:54.375Z,3.20
2017-12-16T16:14:22.668Z,3.20
2017-12-16T16:16:50.976Z,3.20
2017-12-16T16:19:19.269Z,3.20
2017-12-16T16:21:46.808Z,3.20
2017-12-16T16:24:14.328Z,3.20
2017-12-16T16:26:42.642Z,3.30
2017-12-16T16:29:10.929Z,3.30
2017-12-16T16:31:39.240Z,3.30
2017-12-16T16:34:07.532Z,3.40
2017-12-16T16:36:35.848Z,3.40
2017-12-16T16:39:04.144Z,3.40
2017-12-16T16:41:32.461Z,3.40
2017-12-16T16:44:00.758Z,3.40
2017-12-16T16:46:29.068Z,3.50
2017-12-16T16:48:57.360Z,3.50
2017-12-16T16:51:25.669Z,3.50
2017-12-16T16:53:53.956Z,3.50
2017-12-16T16:56:22.280Z,3.50
2017-12-16T16:58:50.569Z,3.50
2017-12-16T17:01:18.889Z,3.50
2017-12-16T17:03:47.176Z,3.50
2017-12-16T17:06:15.494Z,3.50
2017-12-16T17:08:43.792Z,3.50
2017-12-16T17:11:12.107Z,3.60
2017-12-16T17:13:40.393Z,3.60
2017-12-16T17:16:08.709Z,3.60
2017-12-16T17:18:36.997Z,3.50
2017-12-16T17:21:04.549Z,3.50
2017-12-16T17:23:32.838Z,3.40
2017-12-16T17:26:01.143Z,3.40
2017-12-16T17:28:29.430Z,3.40
2017-12-16T17:30:57.735Z,3.40
2017-12-16T17:33:26.034Z,3.40
2017-12-16T17:35:54.354Z,3.40
2017-12-16T17:38:22.648Z,3.40
2017-12-16T17:40:50.933Z,3.50
2017-12-16T17:43:19.240Z,3.50
2017-12-16T17:45:47.537Z,3.50
2017-12-16T17:48:15.854Z,3.50
2017-12-16T17:50:44.149Z,3.40
2017-12-16T17:53:12.469Z,3.40
2017-12-16T17:55:40.748Z,3.40
2017-12-16T17:58:09.053Z,3.40
2017-12-16T18:00:37.345Z,3.40
2017-12-16T18:03:05.654Z,3.40
2017-12-16T18:05:33.942Z,3.30
2017-12-16T18:08:02.326Z,3.30
2017-12-16T18:10:30.567Z,3.30
2017-12-16T18:12:58.933Z,3.30
2017-12-16T18:15:27.190Z,3.30
2017-12-16T18:17:56.516Z,3.40
2017-12-16T18:20:24.804Z,3.40
2017-12-16T18:22:53.112Z,3.40
2017-12-16T18:25:21.401Z,3.40
2017-12-16T18:27:49.713Z,3.30
2017-12-16T18:30:17.234Z,3.30
2017-12-16T18:32:45.539Z,3.30
2017-12-16T18:35:13.829Z,3.30
2017-12-16T18:37:42.135Z,3.30
2017-12-16T18:40:09.677Z,3.30
2017-12-16T18:42:38.003Z,3.40
2017-12-16T18:45:06.297Z,3.40
2017-12-16T18:47:34.613Z,3.40
2017-12-16T18:50:02.900Z,3.40
2017-12-16T18:52:31.208Z,3.40
2017-12-16T18:54:59.500Z,3.40
2017-12-16T18:57:27.805Z,3.40
2017-12-16T18:59:55.334Z,3.40
2017-12-16T19:02:23.658Z,3.50
2017-12-16T19:04:51.941Z,3.50
2017-12-16T19:07:20.249Z,3.50
2017-12-16T19:09:48.543Z,3.50
2017-12-16T19:12:16.085Z,3.50
2017-12-16T19:14:44.373Z,3.50
2017-12-16T19:17:12.666Z,3.50
2017-12-16T19:19:40.976Z,3.50
2017-12-16T19:22:09.611Z,3.40
2017-12-16T19:24:38.476Z,3.40
2017-12-16T19:27:07.250Z,3.40
2017-12-16T19:29:35.739Z,3.40
2017-12-16T19:32:04.074Z,3.40
2017-12-16T19:34:31.615Z,3.40
2017-12-16T19:36:59.904Z,3.40
2017-12-16T19:39:28.262Z,3.40
2017-12-16T19:41:56.570Z,3.40
2017-12-16T19:44:24.968Z,3.40
2017-12-16T19:46:53.256Z,3.40
2017-12-16T19:49:21.601Z,3.40
2017-12-16T19:51:50.006Z,3.30
2017-12-16T19:54:18.366Z,3.30
2017-12-16T19:56:46.685Z,3.30
2017-12-16T19:59:15.005Z,3.30
2017-12-16T20:01:43.308Z,3.30
2017-12-16T20:04:11.634Z,3.30
2017-12-16T20:06:40.001Z,3.20
2017-12-16T20:09:08.309Z,3.20
2017-12-16T20:11:36.597Z,3.10
2017-12-16T20:14:04.917Z,3.10
2017-12-16T20:16:33.226Z,3.10
2017-12-16T20:19:01.606Z,3.00
2017-12-16T20:21:29.896Z,3.00
2017-12-16T20:23:58.217Z,2.90
2017-12-16T20:26:26.513Z,2.90
2017-12-16T20:28:54.892Z,2.90
2017-12-16T20:31:23.184Z,2.90
2017-12-16T20:33:51.489Z,2.90
2017-12-16T20:36:19.777Z,3.00
2017-12-16T20:38:48.089Z,3.00
2017-12-16T20:41:16.393Z,3.00
2017-12-16T20:43:44.740Z,3.00
2017-12-16T20:46:13.068Z,3.00
2017-12-16T20:48:41.381Z,3.00
2017-12-16T20:51:09.683Z,3.00
2017-12-16T20:53:37.997Z,3.10
2017-12-16T20:56:06.285Z,3.00
2017-12-16T20:58:34.642Z,3.00
2017-12-16T21:01:02.981Z,3.00
2017-12-16T21:03:31.281Z,3.00
2017-12-16T21:05:59.603Z,3.00
2017-12-16T21:08:27.892Z,2.90
2017-12-16T21:10:56.208Z,2.90
2017-12-16T21:13:24.500Z,2.90
2017-12-16T21:15:52.821Z,2.90
2017-12-16T21:18:21.137Z,2.90
2017-12-16T21:20:49.453Z,2.90
2017-12-16T21:23:17.753Z,2.90
2017-12-16T21:25:46.064Z,2.90
2017-12-16T21:28:14.365Z,2.90
2017-12-16T21:30:42.677Z,2.90
2017-12-16T21:33:10.969Z,2.90
2017-12-16T21:35:39.289Z,2.90
2017-12-16T21:38:07.581Z,2.90
2017-12-16T21:40:35.125Z,2.90
2017-12-16T21:43:03.418Z,2.80
2017-12-16T21:45:31.728Z,2.80
2017-12-16T22:00:43.504Z,2.80
2017-12-16T22:03:11.811Z,3.10
2017-12-16T22:05:40.121Z,3.10
2017-12-16T22:08:08.405Z,3.00
2017-12-16T22:10:36.718Z,3.00
2017-12-16T22:13:05.003Z,2.90
2017-12-16T22:15:33.308Z,2.90
2017-12-16T22:18:01.592Z,2.90
2017-12-16T22:20:29.897Z,2.90
2017-12-16T22:22:58.185Z,2.90
2017-12-16T22:25:26.501Z,2.90
2017-12-16T22:27:54.788Z,2.80
2017-12-16T22:30:23.104Z,2.90
2017-12-16T22:32:51.384Z,2.80
2017-12-16T22:35:19.685Z,2.80
2017-12-16T22:37:47.978Z,2.80
2017-12-16T22:40:16.288Z,2.80
2017-12-16T22:42:44.573Z,2.80
2017-12-16T22:45:12.883Z,2.80
2017-12-16T22:47:41.168Z,2.80
2017-12-16T22:50:09.489Z,2.80
2017-12-16T22:52:37.777Z,2.80
2017-12-16T22:55:06.061Z,2.80
2017-12-16T22:57:34.372Z,2.80
2017-12-16T23:00:02.660Z,2.90
2017-12-16T23:02:30.963Z,2.80
2017-12-16T23:04:58.481Z,2.80
2017-12-16T23:07:26.795Z,2.80
2017-12-16T23:09:55.090Z,2.80
2017-12-16T23:12:23.396Z,2.80
2017-12-16T23:14:51.698Z,2.80
2017-12-16T23:17:20.041Z,2.80
2017-12-16T23:19:48.336Z,2.80
2017-12-16T23:22:16.648Z,2.80
2017-12-16T23:24:44.945Z,2.80
2017-12-16T23:27:13.265Z,2.80
2017-12-16T23:29:41.581Z,2.80
2017-12-16T23:32:09.896Z,2.80
2017-12-16T23:34:38.188Z,2.80
2017-12-16T23:37:06.496Z,2.70
2017-12-16T23:39:34.781Z,2.70
2017-12-16T23:42:03.083Z,2.70
2017-12-16T23:44:31.369Z,2.70
2017-12-16T23:46:59.675Z,2.70
2017-12-16T23:49:27.963Z,2.70
2017-12-16T23:51:56.273Z,2.70
2017-12-16T23:54:23.795Z,2.70
2017-12-16T23:56:52.099Z,2.60
2017-12-16T23:59:20.385Z,2.60
